D/T METAR WX W/DIR W/SPE G/SPE TEMP DEWP
23/05/19 13:20 EGJJ 231220Z 29008KT 9999 FEW001 15/10 Q1018 WNW (290°) 9.2mph 15°C 10°C
23/05/19 12:50 EGJJ 231150Z 29010KT 9999 3500W VCFG FEW000 15/12 Q1018 VCFG WNW (290°) 11.5mph 15°C 12°C
23/05/19 12:20 EGJJ 231120Z 29010KT 9999 1800W PRFG FEW000 14/12 Q1018 PRFG WNW (290°) 11.5mph 14°C 12°C
23/05/19 11:50 EGJJ 231050Z 28010KT 250V310 9999 4000NW VCFG FEW000 15/11 Q1018 VCFG W (280°) 11.5mph 15°C 11°C
23/05/19 11:20 EGJJ 231020Z 29010KT CAVOK 15/11 Q1018 WNW (290°) 11.5mph 15°C 11°C
23/05/19 10:50 EGJJ 230950Z 29010KT CAVOK 15/11 Q1018 WNW (290°) 11.5mph 15°C 11°C
23/05/19 10:20 EGJJ 230920Z 28009KT CAVOK 16/11 Q1018 W (280°) 10.4mph 16°C 11°C
23/05/19 09:50 EGJJ 230850Z 29009KT CAVOK 15/10 Q1018 WNW (290°) 10.4mph 15°C 10°C
23/05/19 09:20 EGJJ 230820Z 29010KT CAVOK 15/11 Q1018 WNW (290°) 11.5mph 15°C 11°C
23/05/19 08:50 EGJJ 230750Z 27010KT CAVOK 15/11 Q1018 W (270°) 11.5mph 15°C 11°C
23/05/19 07:50 EGJJ 230650Z 27005KT CAVOK 15/11 Q1017 W (270°) 5.8mph 15°C 11°C
23/05/19 07:20 EGJJ 230620Z 26007KT CAVOK 14/11 Q1017 W (260°) 8.1mph 14°C 11°C
23/05/19 06:50 EGJJ 230550Z 24006KT CAVOK 13/11 Q1017 WSW (240°) 6.9mph 13°C 11°C
23/05/19 06:20 EGJJ 230520Z 20003KT CAVOK 12/10 Q1017 SSW (200°) 3.5mph 12°C 10°C
23/05/19 05:20 EGJJ 230420Z AUTO 20004KT 9999 NCD 12/10 Q1017 SSW (200°) 4.6mph 12°C 10°C
23/05/19 04:50 EGJJ 230350Z AUTO 22007KT 9999 NCD 12/10 Q1017 SW (220°) 8.1mph 12°C 10°C
23/05/19 04:20 EGJJ 230320Z AUTO 20004KT 160V230 9999 NCD 13/10 Q1017 SSW (200°) 4.6mph 13°C 10°C
23/05/19 03:50 EGJJ 230250Z AUTO 15003KT 9999 NCD 13/10 Q1017 SSE (150°) 3.5mph 13°C 10°C
23/05/19 03:20 EGJJ 230220Z AUTO 13004KT 120V190 9999 NCD 12/09 Q1017 SE (130°) 4.6mph 12°C 9°C
23/05/19 02:50 EGJJ 230150Z AUTO 11006KT 9999 NCD 12/09 Q1017 ESE (110°) 6.9mph 12°C 9°C
23/05/19 01:50 EGJJ 230050Z AUTO 11006KT 9999 NCD 12/08 Q1017 ESE (110°) 6.9mph 12°C 8°C
23/05/19 01:20 EGJJ 230020Z AUTO 11008KT 9999 NCD 12/08 Q1018 ESE (110°) 9.2mph 12°C 8°C
23/05/19 00:50 EGJJ 222350Z AUTO 10007KT 9999 NCD 12/08 Q1018 E (100°) 8.1mph 12°C 8°C
23/05/19 00:20 EGJJ 222320Z AUTO 09008KT 9999 NCD 12/08 Q1018 E (90°) 9.2mph 12°C 8°C
22/05/19 23:50 EGJJ 222250Z AUTO 08010KT 9999 NCD 13/08 Q1018 E (80°) 11.5mph 13°C 8°C
22/05/19 23:20 EGJJ 222220Z AUTO 08010KT 9999 NCD 13/08 Q1018 E (80°) 11.5mph 13°C 8°C
22/05/19 22:50 EGJJ 222150Z AUTO 09008KT 9999 NCD 13/08 Q1018 E (90°) 9.2mph 13°C 8°C
22/05/19 22:20 EGJJ 222120Z AUTO 08009KT 9999 NCD 13/08 Q1019 E (80°) 10.4mph 13°C 8°C
22/05/19 21:50 EGJJ 222050Z AUTO 09007KT 9999 NCD 14/08 Q1019 E (90°) 8.1mph 14°C 8°C
22/05/19 21:20 EGJJ 222020Z 06008KT CAVOK 15/08 Q1019 ENE (60°) 9.2mph 15°C 8°C
22/05/19 20:50 EGJJ 221950Z 08006KT CAVOK 15/08 Q1018 E (80°) 6.9mph 15°C 8°C
22/05/19 20:20 EGJJ 221920Z 09006KT CAVOK 16/09 Q1018 E (90°) 6.9mph 16°C 9°C
22/05/19 19:50 EGJJ 221850Z 08005KT CAVOK 17/09 Q1018 E (80°) 5.8mph 17°C 9°C
22/05/19 19:20 EGJJ 221820Z 08006KT CAVOK 19/09 Q1019 E (80°) 6.9mph 19°C 9°C
22/05/19 18:50 EGJJ 221750Z 10007KT 070V130 CAVOK 19/09 Q1019 E (100°) 8.1mph 19°C 9°C
22/05/19 18:20 EGJJ 221720Z 14008KT CAVOK 20/08 Q1019 SE (140°) 9.2mph 20°C 8°C
22/05/19 17:50 EGJJ 221650Z 14008KT 110V170 CAVOK 19/08 Q1019 SE (140°) 9.2mph 19°C 8°C
22/05/19 17:20 EGJJ 221620Z 13007KT 100V170 CAVOK 20/08 Q1019 SE (130°) 8.1mph 20°C 8°C
22/05/19 16:50 EGJJ 221550Z 15006KT CAVOK 20/08 Q1019 SSE (150°) 6.9mph 20°C 8°C
22/05/19 16:20 EGJJ 221520Z 15005KT 110V210 CAVOK 21/09 Q1020 SSE (150°) 5.8mph 21°C 9°C
22/05/19 15:50 EGJJ 221450Z VRB03KT CAVOK 21/08 Q1020 N (0°) 3.5mph 21°C 8°C
22/05/19 15:20 EGJJ 221420Z 10006KT 060V150 CAVOK 20/08 Q1020 E (100°) 6.9mph 20°C 8°C
22/05/19 14:50 EGJJ 221350Z 13007KT 100V160 CAVOK 20/09 Q1020 SE (130°) 8.1mph 20°C 9°C
22/05/19 14:20 EGJJ 221320Z VRB04KT 9999 FEW040 20/09 Q1021 N (0°) 4.6mph 20°C 9°C
22/05/19 13:50 EGJJ 221250Z 26005KT 180V330 9999 FEW040 19/09 Q1021 W (260°) 5.8mph 19°C 9°C
22/05/19 13:20 EGJJ 221220Z 28005KT 250V320 9999 FEW040 18/10 Q1021 W (280°) 5.8mph 18°C 10°C
22/05/19 12:50 EGJJ 221150Z 27004KT 210V350 9999 FEW040 18/09 Q1021 W (270°) 4.6mph 18°C 9°C
22/05/19 12:20 EGJJ 221120Z VRB04KT CAVOK 18/08 Q1021 N (0°) 4.6mph 18°C 8°C